createdAt,value
2022-12-13T00:01:29.730Z,100.00
2022-12-13T00:03:58.885Z,100.00
2022-12-13T00:06:29.082Z,100.00
2022-12-13T00:08:56.798Z,100.00
2022-12-13T00:11:24.525Z,100.00
2022-12-13T00:13:52.291Z,100.00
2022-12-13T00:16:22.843Z,100.00
2022-12-13T00:18:52.334Z,100.00
2022-12-13T00:21:21.996Z,100.00
2022-12-13T00:23:51.612Z,100.00
2022-12-13T00:26:20.898Z,100.00
2022-12-13T00:28:49.518Z,100.00
2022-12-13T00:31:53.550Z,100.00
2022-12-13T00:34:05.759Z,100.00
2022-12-13T00:36:33.506Z,100.00
2022-12-13T00:39:02.794Z,100.00
2022-12-13T00:41:32.676Z,100.00
2022-12-13T00:44:01.620Z,100.00
2022-12-13T00:46:30.378Z,100.00
2022-12-13T00:49:01.032Z,100.00
2022-12-13T00:51:30.852Z,100.00
2022-12-13T00:53:59.145Z,100.00
2022-12-13T00:56:30.889Z,100.00
2022-12-13T00:58:59.138Z,100.00
2022-12-13T01:01:29.158Z,100.00
2022-12-13T01:03:59.365Z,100.00
2022-12-13T01:06:30.285Z,100.00
2022-12-13T01:08:57.994Z,100.00
2022-12-13T01:11:27.797Z,100.00
2022-12-13T01:13:55.551Z,100.00
2022-12-13T01:16:23.380Z,100.00
2022-12-13T01:18:51.439Z,100.00
2022-12-13T01:21:21.028Z,100.00
2022-12-13T01:23:50.412Z,100.00
2022-12-13T01:26:21.623Z,100.00
2022-12-13T01:28:51.003Z,100.00
2022-12-13T01:31:21.599Z,100.00
2022-12-13T01:33:50.263Z,100.00
2022-12-13T01:36:27.025Z,100.00
2022-12-13T01:38:58.172Z,100.00
2022-12-13T01:41:27.779Z,100.00
2022-12-13T01:44:01.321Z,100.00
2022-12-13T01:46:29.091Z,100.00
2022-12-13T01:49:02.442Z,100.00
2022-12-13T01:51:35.149Z,100.00
2022-12-13T01:54:05.413Z,100.00
2022-12-13T01:56:37.100Z,100.00
2022-12-13T01:59:09.262Z,100.00
2022-12-13T02:01:37.656Z,100.00
2022-12-13T02:04:05.742Z,100.00
2022-12-13T02:06:36.115Z,100.00
2022-12-13T02:09:06.921Z,100.00
2022-12-13T02:11:36.312Z,100.00
2022-12-13T02:14:05.381Z,100.00
2022-12-13T02:16:48.801Z,100.00
2022-12-13T02:19:53.057Z,100.00
2022-12-13T02:22:38.715Z,100.00
2022-12-13T02:25:37.015Z,100.00
2022-12-13T02:28:31.605Z,100.00
2022-12-13T02:31:08.472Z,100.00
2022-12-13T02:33:45.725Z,100.00
2022-12-13T02:36:18.693Z,100.00
2022-12-13T02:38:53.991Z,100.00
2022-12-13T02:41:28.139Z,100.00
2022-12-13T02:44:02.055Z,100.00
2022-12-13T02:46:38.232Z,100.00
2022-12-13T02:49:10.189Z,100.00
2022-12-13T02:51:39.681Z,100.00
2022-12-13T02:54:07.418Z,100.00
2022-12-13T02:56:35.096Z,100.00
2022-12-13T02:59:10.072Z,100.00
2022-12-13T03:01:53.495Z,100.00
2022-12-13T03:05:03.998Z,100.00
2022-12-13T03:07:39.792Z,100.00
2022-12-13T03:10:16.773Z,100.00
2022-12-13T03:13:12.823Z,100.00
2022-12-13T03:15:47.615Z,100.00
2022-12-13T03:18:19.797Z,100.00
2022-12-13T03:20:49.185Z,100.00
2022-12-13T03:23:18.480Z,100.00
2022-12-13T03:25:48.685Z,100.00
2022-12-13T03:28:16.747Z,100.00
2022-12-13T03:30:44.486Z,100.00
2022-12-13T03:33:12.213Z,100.00
2022-12-13T03:35:44.870Z,100.00
2022-12-13T03:38:22.126Z,100.00
2022-12-13T03:40:54.538Z,100.00
2022-12-13T03:43:23.226Z,100.00
2022-12-13T03:45:51.749Z,100.00
2022-12-13T03:48:22.629Z,100.00
2022-12-13T03:50:54.439Z,100.00
2022-12-13T03:53:33.309Z,100.00
2022-12-13T03:56:02.854Z,100.00
2022-12-13T03:58:36.640Z,100.00
2022-12-13T04:01:06.877Z,100.00
2022-12-13T04:03:34.739Z,100.00
2022-12-13T04:06:04.053Z,100.00
2022-12-13T04:08:31.759Z,100.00
2022-12-13T04:10:59.479Z,100.00
2022-12-13T04:13:35.305Z,100.00
2022-12-13T04:16:04.045Z,100.00
2022-12-13T04:18:32.085Z,100.00
2022-12-13T04:20:59.746Z,100.00
2022-12-13T04:23:28.755Z,100.00
2022-12-13T04:25:57.340Z,100.00
2022-12-13T04:28:24.968Z,100.00
2022-12-13T04:30:53.955Z,100.00
2022-12-13T04:33:22.560Z,100.00
2022-12-13T04:35:51.306Z,100.00
2022-12-13T04:38:19.777Z,100.00
2022-12-13T04:40:48.866Z,100.00
2022-12-13T04:43:16.531Z,100.00
2022-12-13T04:45:44.381Z,100.00
2022-12-13T04:48:12.052Z,100.00
2022-12-13T04:50:39.721Z,100.00
2022-12-13T04:53:07.348Z,100.00
2022-12-13T04:55:35.373Z,100.00
2022-12-13T04:58:04.953Z,100.00
2022-12-13T05:00:32.648Z,100.00
2022-12-13T05:03:00.444Z,100.00
2022-12-13T05:05:28.052Z,100.00
2022-12-13T05:07:56.510Z,100.00
2022-12-13T05:10:34.091Z,100.00
2022-12-13T05:13:07.164Z,100.00
2022-12-13T05:15:35.727Z,100.00
2022-12-13T05:18:09.809Z,100.00
2022-12-13T05:20:39.649Z,100.00
2022-12-13T05:23:07.574Z,100.00
2022-12-13T05:25:37.115Z,100.00
2022-12-13T05:28:08.866Z,100.00
2022-12-13T05:30:55.522Z,100.00
2022-12-13T05:33:23.882Z,100.00
2022-12-13T05:35:54.981Z,100.00
2022-12-13T05:38:25.630Z,100.00
2022-12-13T05:40:53.260Z,100.00
2022-12-13T05:43:23.846Z,100.00
2022-12-13T05:46:10.299Z,100.00
2022-12-13T05:48:38.115Z,100.00
2022-12-13T05:51:09.789Z,100.00
2022-12-13T05:53:40.267Z,100.00
2022-12-13T05:56:08.663Z,100.00
2022-12-13T05:58:38.822Z,100.00
2022-12-13T06:01:08.945Z,100.00
2022-12-13T06:03:37.311Z,100.00
2022-12-13T06:06:06.806Z,100.00
2022-12-13T06:08:35.233Z,100.00
2022-12-13T06:11:11.758Z,100.00
2022-12-13T06:13:43.472Z,100.00
2022-12-13T06:16:23.043Z,100.00
2022-12-13T06:19:01.005Z,100.00
2022-12-13T06:21:44.127Z,100.00
2022-12-13T06:24:15.982Z,100.00
2022-12-13T06:26:44.969Z,100.00
2022-12-13T06:29:22.537Z,100.00
2022-12-13T06:32:01.204Z,100.00
2022-12-13T06:34:31.319Z,100.00
2022-12-13T06:36:58.991Z,100.00
2022-12-13T06:39:32.234Z,100.00
2022-12-13T06:42:00.321Z,100.00
2022-12-13T06:44:29.548Z,100.00
2022-12-13T06:47:10.768Z,100.00
2022-12-13T06:49:41.008Z,100.00
2022-12-13T06:52:11.723Z,100.00
2022-12-13T06:54:39.869Z,100.00
2022-12-13T06:57:07.542Z,100.00
2022-12-13T06:59:37.272Z,100.00
2022-12-13T07:02:06.528Z,100.00
2022-12-13T07:04:52.471Z,100.00
2022-12-13T07:07:20.363Z,100.00
2022-12-13T07:09:47.978Z,100.00
2022-12-13T07:12:15.741Z,100.00
2022-12-13T07:14:45.314Z,100.00
2022-12-13T07:17:13.081Z,100.00
2022-12-13T07:20:00.874Z,100.00
2022-12-13T07:22:29.388Z,100.00
2022-12-13T07:25:03.133Z,100.00
2022-12-13T07:27:36.966Z,100.00
2022-12-13T07:30:08.172Z,100.00
2022-12-13T07:32:35.851Z,100.00
2022-12-13T07:35:03.713Z,100.00
2022-12-13T07:37:31.391Z,100.00
2022-12-13T07:40:03.930Z,100.00
2022-12-13T07:42:32.927Z,100.00
2022-12-13T07:45:01.151Z,100.00
2022-12-13T07:47:31.688Z,100.00
2022-12-13T07:49:59.559Z,100.00
2022-12-13T07:52:29.397Z,100.00
2022-12-13T07:54:57.082Z,100.00
2022-12-13T07:57:25.602Z,100.00
2022-12-13T07:59:53.236Z,100.00
2022-12-13T08:02:20.909Z,100.00
2022-12-13T08:04:54.476Z,100.00
2022-12-13T08:07:23.074Z,100.00
2022-12-13T08:09:52.993Z,100.00
2022-12-13T08:12:22.518Z,100.00
2022-12-13T08:14:53.178Z,100.00
2022-12-13T08:17:21.498Z,100.00
2022-12-13T08:19:50.658Z,100.00
2022-12-13T08:22:24.281Z,100.00
2022-12-13T08:24:52.217Z,100.00
2022-12-13T08:27:20.006Z,100.00
2022-12-13T08:29:47.638Z,100.00
2022-12-13T08:32:15.243Z,100.00
2022-12-13T08:34:43.347Z,100.00
2022-12-13T08:37:12.957Z,100.00
2022-12-13T08:39:41.147Z,100.00
2022-12-13T08:42:15.903Z,100.00
2022-12-13T08:44:46.468Z,100.00
2022-12-13T08:47:24.815Z,100.00
2022-12-13T08:50:02.902Z,100.00
2022-12-13T08:52:39.339Z,100.00
2022-12-13T08:55:09.769Z,100.00
2022-12-13T08:57:37.830Z,100.00
2022-12-13T09:00:06.202Z,100.00
2022-12-13T09:02:38.080Z,100.00
2022-12-13T09:05:08.299Z,100.00
2022-12-13T09:07:39.418Z,100.00
2022-12-13T09:10:26.329Z,100.00
2022-12-13T09:13:01.423Z,100.00
2022-12-13T09:15:34.588Z,100.00
2022-12-13T09:18:04.403Z,100.00
2022-12-13T09:20:41.131Z,100.00
2022-12-13T09:23:14.220Z,100.00
2022-12-13T09:26:05.648Z,100.00
2022-12-13T09:28:35.013Z,100.00
2022-12-13T09:31:03.270Z,100.00
2022-12-13T09:33:31.400Z,100.00
2022-12-13T09:36:01.365Z,100.00
2022-12-13T09:38:30.887Z,100.00
2022-12-13T09:41:12.447Z,100.00
2022-12-13T09:43:50.668Z,100.00
2022-12-13T09:46:27.504Z,100.00
2022-12-13T09:49:05.409Z,100.00
2022-12-13T09:51:46.667Z,100.00
2022-12-13T09:54:22.130Z,100.00
2022-12-13T09:56:51.624Z,100.00
2022-12-13T09:59:25.305Z,100.00
2022-12-13T10:01:53.034Z,100.00
2022-12-13T10:04:20.826Z,100.00
2022-12-13T10:06:53.471Z,100.00
2022-12-13T10:09:23.542Z,100.00
2022-12-13T10:11:53.098Z,100.00
2022-12-13T10:14:26.121Z,100.00
2022-12-13T10:16:57.870Z,100.00
2022-12-13T10:19:34.218Z,100.00
2022-12-13T10:22:04.108Z,100.00
2022-12-13T10:24:51.928Z,100.00
2022-12-13T10:27:21.291Z,100.00
2022-12-13T10:30:01.527Z,100.00
2022-12-13T10:32:29.928Z,100.00
2022-12-13T10:35:21.496Z,100.00
2022-12-13T10:37:49.434Z,100.00
2022-12-13T10:40:35.618Z,100.00
2022-12-13T10:43:13.964Z,100.00
2022-12-13T10:45:42.307Z,100.00
2022-12-13T10:48:21.048Z,100.00
2022-12-13T10:50:59.516Z,100.00
2022-12-13T10:53:32.316Z,100.00
2022-12-13T10:56:03.112Z,100.00
2022-12-13T10:58:39.813Z,100.00
2022-12-13T11:01:20.447Z,100.00
2022-12-13T11:04:02.313Z,100.00
2022-12-13T11:06:43.705Z,100.00
2022-12-13T11:09:23.057Z,100.00
2022-12-13T11:11:58.309Z,100.00
2022-12-13T11:14:31.673Z,100.00
2022-12-13T11:17:06.576Z,100.00
2022-12-13T11:19:39.768Z,100.00
2022-12-13T11:22:09.846Z,100.00
2022-12-13T11:24:42.161Z,100.00
2022-12-13T11:27:37.009Z,100.00
2022-12-13T11:30:12.874Z,100.00
2022-12-13T11:33:00.486Z,100.00
2022-12-13T11:35:35.109Z,100.00
2022-12-13T11:38:16.402Z,100.00
2022-12-13T11:40:50.334Z,100.00
2022-12-13T11:43:27.842Z,100.00
2022-12-13T11:45:59.384Z,100.00
2022-12-13T11:48:40.642Z,100.00
2022-12-13T11:51:12.491Z,100.00
2022-12-13T11:53:49.737Z,100.00
2022-12-13T11:56:25.370Z,100.00
2022-12-13T11:59:04.707Z,100.00
2022-12-13T12:01:39.037Z,100.00
2022-12-13T12:04:29.873Z,100.00
2022-12-13T12:07:30.633Z,100.00
2022-12-13T12:09:59.293Z,100.00
2022-12-13T12:12:32.961Z,100.00
2022-12-13T12:15:16.193Z,100.00
2022-12-13T12:17:44.776Z,100.00
2022-12-13T12:20:23.418Z,100.00
2022-12-13T12:23:04.349Z,100.00
2022-12-13T12:25:42.226Z,100.00
2022-12-13T12:28:22.821Z,100.00
2022-12-13T12:31:01.180Z,100.00
2022-12-13T12:33:37.844Z,100.00
2022-12-13T12:36:28.293Z,100.00
2022-12-13T12:39:28.234Z,100.00
2022-12-13T12:42:14.217Z,100.00
2022-12-13T12:44:49.346Z,100.00
2022-12-13T12:47:56.485Z,100.00
2022-12-13T12:50:34.493Z,100.00
2022-12-13T12:53:16.940Z,100.00
2022-12-13T12:55:53.690Z,100.00
2022-12-13T12:58:30.083Z,100.00
2022-12-13T13:01:13.439Z,100.00
2022-12-13T13:03:44.498Z,100.00
2022-12-13T13:06:16.581Z,100.00
2022-12-13T13:08:54.977Z,100.00
2022-12-13T13:11:26.002Z,100.00
2022-12-13T13:14:06.622Z,100.00
2022-12-13T13:16:37.889Z,100.00
2022-12-13T13:19:28.798Z,100.00
2022-12-13T13:22:01.477Z,100.00
2022-12-13T13:24:31.359Z,100.00
2022-12-13T13:27:00.675Z,100.00
2022-12-13T13:29:37.608Z,100.00
2022-12-13T13:32:29.579Z,100.00
2022-12-13T13:35:54.364Z,100.00
2022-12-13T13:38:50.766Z,100.00
2022-12-13T13:42:07.781Z,100.00
2022-12-13T13:45:08.057Z,100.00
2022-12-13T13:47:41.864Z,100.00
2022-12-13T13:50:39.602Z,100.00
2022-12-13T13:56:41.109Z,100.00
2022-12-13T13:59:52.653Z,100.00
2022-12-13T14:02:49.712Z,100.00
2022-12-13T14:05:53.488Z,100.00
2022-12-13T14:08:32.308Z,100.00
2022-12-13T14:11:21.038Z,100.00
2022-12-13T14:14:28.791Z,100.00
2022-12-13T14:17:56.431Z,100.00
2022-12-13T14:20:47.106Z,100.00
2022-12-13T14:23:25.600Z,100.00
2022-12-13T14:26:06.097Z,100.00
2022-12-13T14:28:46.035Z,100.00
2022-12-13T14:31:21.870Z,100.00
2022-12-13T14:33:52.112Z,100.00
2022-12-13T14:36:28.633Z,100.00
2022-12-13T14:39:03.757Z,100.00
2022-12-13T14:41:32.149Z,100.00
2022-12-13T14:46:57.566Z,100.00
2022-12-13T14:49:28.799Z,100.00
2022-12-13T14:52:01.411Z,100.00
2022-12-13T14:54:33.837Z,100.00
2022-12-13T14:57:04.356Z,100.00
2022-12-13T14:59:33.593Z,100.00
2022-12-13T15:02:04.457Z,100.00
2022-12-13T15:04:35.242Z,100.00
2022-12-13T15:07:07.469Z,100.00
2022-12-13T15:09:40.584Z,100.00
2022-12-13T15:12:15.337Z,100.00
2022-12-13T15:14:59.542Z,100.00
2022-12-13T15:17:33.145Z,100.00
2022-12-13T15:20:23.888Z,100.00
2022-12-13T15:23:03.502Z,100.00
2022-12-13T15:25:39.039Z,100.00
2022-12-13T15:28:07.841Z,100.00
2022-12-13T15:30:37.019Z,100.00
2022-12-13T15:33:08.854Z,100.00
2022-12-13T15:35:38.428Z,100.00
2022-12-13T15:38:06.162Z,100.00
2022-12-13T15:40:34.861Z,100.00
2022-12-13T15:43:02.773Z,100.00
2022-12-13T15:45:36.894Z,100.00
2022-12-13T15:48:07.079Z,100.00
2022-12-13T15:50:38.507Z,100.00
2022-12-13T15:53:24.001Z,100.00
2022-12-13T15:55:51.917Z,100.00
2022-12-13T15:58:27.710Z,100.00
2022-12-13T16:00:56.556Z,100.00
2022-12-13T16:03:28.886Z,100.00
2022-12-13T16:05:58.962Z,100.00
2022-12-13T16:08:31.450Z,100.00
2022-12-13T16:11:00.140Z,100.00
2022-12-13T16:13:32.161Z,100.00
2022-12-13T16:16:09.293Z,100.00
2022-12-13T16:18:47.557Z,100.00
2022-12-13T16:21:15.659Z,100.00
2022-12-13T16:23:48.870Z,100.00
2022-12-13T16:26:23.010Z,100.00
2022-12-13T16:28:50.967Z,100.00
2022-12-13T16:31:22.533Z,100.00
2022-12-13T16:33:52.445Z,100.00
2022-12-13T16:36:20.564Z,100.00
2022-12-13T16:38:48.303Z,100.00
2022-12-13T16:41:16.342Z,100.00
2022-12-13T16:43:52.846Z,100.00
2022-12-13T16:47:17.115Z,100.00
2022-12-13T16:49:21.487Z,100.00
2022-12-13T16:51:49.851Z,100.00
2022-12-13T16:54:19.091Z,100.00
2022-12-13T16:56:47.145Z,100.00
2022-12-13T16:59:15.832Z,100.00
2022-12-13T17:01:45.219Z,100.00
2022-12-13T17:04:20.673Z,100.00
2022-12-13T17:06:49.798Z,100.00
2022-12-13T17:09:18.369Z,100.00
2022-12-13T17:11:46.485Z,100.00
2022-12-13T17:14:15.198Z,100.00
2022-12-13T17:16:42.987Z,100.00
2022-12-13T17:19:14.460Z,100.00
2022-12-13T17:21:43.827Z,100.00
2022-12-13T17:24:13.399Z,100.00
2022-12-13T17:26:54.454Z,100.00
2022-12-13T17:29:24.532Z,100.00
2022-12-13T17:31:53.755Z,100.00
2022-12-13T17:34:22.554Z,100.00
2022-12-13T17:36:51.969Z,100.00
2022-12-13T17:39:21.081Z,100.00
2022-12-13T17:41:55.031Z,100.00
2022-12-13T17:44:26.698Z,100.00
2022-12-13T17:46:56.075Z,100.00
2022-12-13T17:49:24.358Z,100.00
2022-12-13T17:51:54.918Z,100.00
2022-12-13T17:54:23.760Z,100.00
2022-12-13T17:56:52.175Z,100.00
2022-12-13T17:59:22.319Z,100.00
2022-12-13T18:01:50.673Z,100.00
2022-12-13T18:04:18.998Z,100.00
2022-12-13T18:06:46.890Z,100.00
2022-12-13T18:09:17.361Z,100.00
2022-12-13T18:11:45.746Z,100.00
2022-12-13T18:14:13.421Z,100.00
2022-12-13T18:16:41.138Z,100.00
2022-12-13T18:19:11.626Z,100.00
2022-12-13T18:21:39.574Z,100.00
2022-12-13T18:24:08.128Z,99.20
2022-12-13T18:26:37.385Z,99.44
2022-12-13T18:29:05.829Z,99.39
2022-12-13T18:31:33.673Z,99.32
2022-12-13T18:34:01.476Z,99.90
2022-12-13T18:36:30.130Z,99.60
2022-12-13T18:38:57.931Z,99.81
2022-12-13T18:41:28.243Z,99.45
2022-12-13T18:43:59.647Z,98.29
2022-12-13T18:46:28.539Z,97.84
2022-12-13T18:48:56.705Z,97.73
2022-12-13T18:51:25.079Z,97.45
2022-12-13T18:53:53.099Z,96.85
2022-12-13T18:56:21.158Z,97.05
2022-12-13T18:58:49.670Z,97.64
2022-12-13T19:01:19.891Z,98.11
2022-12-13T19:03:49.571Z,96.98
2022-12-13T19:06:19.920Z,97.47
2022-12-13T19:08:49.310Z,97.66
2022-12-13T19:11:17.598Z,96.63
2022-12-13T19:13:45.844Z,95.57
2022-12-13T19:16:21.329Z,96.18
2022-12-13T19:18:49.477Z,96.68
2022-12-13T19:21:19.863Z,96.81
2022-12-13T19:23:54.975Z,97.45
2022-12-13T19:26:25.432Z,97.80
2022-12-13T19:28:53.223Z,97.35
2022-12-13T19:31:28.512Z,97.22
2022-12-13T19:33:59.311Z,96.87
2022-12-13T19:36:27.021Z,97.20
2022-12-13T19:38:56.923Z,97.37
2022-12-13T19:41:25.715Z,97.79
2022-12-13T19:43:54.115Z,97.86
2022-12-13T19:46:23.336Z,97.13
2022-12-13T19:48:51.107Z,97.21
2022-12-13T19:51:19.036Z,97.43
2022-12-13T19:53:47.072Z,99.63
2022-12-13T19:56:17.577Z,100.00
2022-12-13T19:58:46.203Z,100.00
2022-12-13T20:01:14.337Z,100.00
2022-12-13T20:03:45.129Z,100.00
2022-12-13T20:06:15.984Z,100.00
2022-12-13T20:08:43.958Z,100.00
2022-12-13T20:11:14.991Z,100.00
2022-12-13T20:13:42.761Z,100.00
2022-12-13T20:16:16.239Z,100.00
2022-12-13T20:18:46.002Z,100.00
2022-12-13T20:21:15.443Z,100.00
2022-12-13T20:23:49.496Z,100.00
2022-12-13T20:26:19.236Z,100.00
2022-12-13T20:28:47.446Z,100.00
2022-12-13T20:31:17.118Z,100.00
2022-12-13T20:33:46.320Z,100.00
2022-12-13T20:36:25.584Z,100.00
2022-12-13T20:38:55.158Z,100.00
2022-12-13T20:41:23.094Z,100.00
2022-12-13T20:43:52.456Z,100.00
2022-12-13T20:46:21.080Z,100.00
2022-12-13T20:48:51.149Z,100.00
2022-12-13T20:51:21.890Z,100.00
2022-12-13T20:53:51.546Z,100.00
2022-12-13T20:56:21.963Z,100.00
2022-12-13T20:58:50.404Z,100.00
2022-12-13T21:01:19.752Z,100.00
2022-12-13T21:03:47.983Z,100.00
2022-12-13T21:06:17.017Z,100.00
2022-12-13T21:08:54.440Z,100.00
2022-12-13T21:11:27.189Z,100.00
2022-12-13T21:13:59.961Z,100.00
2022-12-13T21:16:34.507Z,100.00
2022-12-13T21:19:02.647Z,100.00
2022-12-13T21:21:32.159Z,100.00
2022-12-13T21:24:00.581Z,100.00
2022-12-13T21:26:34.631Z,100.00
2022-12-13T21:29:06.333Z,100.00
2022-12-13T21:31:35.875Z,100.00
2022-12-13T21:34:05.326Z,100.00
2022-12-13T21:36:36.896Z,100.00
2022-12-13T21:39:08.226Z,100.00
2022-12-13T21:41:35.974Z,100.00
2022-12-13T21:44:03.647Z,100.00
2022-12-13T21:46:55.148Z,100.00
2022-12-13T21:49:19.208Z,100.00
2022-12-13T21:51:48.730Z,100.00
2022-12-13T21:54:18.358Z,100.00
2022-12-13T21:57:03.783Z,100.00
2022-12-13T21:59:31.900Z,100.00
2022-12-13T22:02:13.439Z,100.00
2022-12-13T22:04:43.499Z,100.00
2022-12-13T22:07:14.629Z,100.00
2022-12-13T22:09:42.306Z,100.00
2022-12-13T22:12:11.606Z,100.00
2022-12-13T22:14:39.272Z,100.00
2022-12-13T22:17:06.897Z,100.00
2022-12-13T22:19:34.631Z,100.00
2022-12-13T22:22:02.310Z,100.00
2022-12-13T22:24:31.637Z,100.00
2022-12-13T22:26:59.464Z,100.00
2022-12-13T22:29:27.592Z,100.00
2022-12-13T22:31:55.574Z,100.00
2022-12-13T22:34:23.455Z,100.00
2022-12-13T22:36:51.389Z,100.00
2022-12-13T22:39:21.616Z,100.00
2022-12-13T22:41:52.502Z,100.00
2022-12-13T22:44:21.398Z,100.00
2022-12-13T22:46:49.317Z,100.00
2022-12-13T22:49:17.810Z,100.00
2022-12-13T22:51:45.567Z,100.00
2022-12-13T22:54:13.309Z,100.00
2022-12-13T22:56:41.010Z,100.00
2022-12-13T22:59:10.477Z,100.00
2022-12-13T23:01:42.412Z,100.00
2022-12-13T23:04:14.966Z,100.00
2022-12-13T23:06:42.750Z,100.00
2022-12-13T23:09:13.485Z,100.00
2022-12-13T23:11:58.709Z,100.00
2022-12-13T23:14:29.833Z,100.00
2022-12-13T23:16:57.821Z,100.00
2022-12-13T23:19:49.859Z,100.00
2022-12-13T23:22:13.961Z,100.00
2022-12-13T23:24:41.867Z,100.00
2022-12-13T23:27:09.944Z,100.00
2022-12-13T23:29:39.373Z,100.00
2022-12-13T23:32:07.398Z,100.00
2022-12-13T23:34:35.309Z,100.00
2022-12-13T23:37:03.102Z,100.00
2022-12-13T23:39:30.802Z,100.00
2022-12-13T23:41:58.521Z,100.00
2022-12-13T23:44:26.313Z,100.00
2022-12-13T23:46:55.327Z,100.00
2022-12-13T23:49:22.987Z,100.00
2022-12-13T23:51:50.645Z,100.00
2022-12-13T23:54:20.067Z,100.00
2022-12-13T23:56:47.962Z,100.00
2022-12-13T23:59:18.216Z,100.00
